Archival Weather

Tokyo Intl

Tokyo, Japan (RJTT)

Report from: Saturday, April 1, 2023 1:00 PM JST
Current time: Sunday, July 14, 2024 8:23 PM JST

Current weather – Weather history – Daily summaries
Weather forecast

Temperature19.0°C (66.2°F)
Dew point13.0°C (55.4°F)
Winds 6 kts (3.1 m/s, 6.9 mph) Northeast (40°)
Visibility6.2 mi. (10 km)
Clouds Few clouds 3,000 ft. (914 m)
Altimeter29.97 in.Hg (1015 mB)
Relative humidity68 %
Density altitude619 ft. (189 m)
Flight conditions Visual Meteorological Conditions
Raw dataRJTT 010400Z 04006KT 9999 FEW030 19/13 Q1015 BECMG 08006KT
An error has occurred. This application may no longer respond until reloaded. Reload 🗙